X  Zamknij Lotniskowe dane METAR     EDDK Cologne Bonn Airport
Temperatura
13°C Temperatura
11°C Punkt rosy
88% Wilgotność



Wiatr
8 KM/H
5 MPH
2 M/S
4 KTS



240°
WSW
Warunki bieżące

Pochmurno Pochmurno
Ciśnienie 1012.87 (hPa) - 29.91 (inHg)
Widoczność 6 (mil) - 9.7 (km)
Lotnisko
Kod lotniska EDDK

Położenie: Cologne Bonn Airport
Odległość: 56 (km)

Metar:
EDDK 130320Z AUTO 24004KT 9999 BKN016 BKN022 BKN026 13/11 Q1013 NOSIG

Czas: 2024-07-13 05:20 CEST